info@concordregional.com
(704) 793-1234
contact us

We're located at
Concord Regional Airport
Concord, North Carolina
Hangar D, same office locations as Charlotte Jet

Flight Planning and Weather Links

Regional METARS  |  NOAA Aviation WX  |  JQF Terminal Charts  |  FltPlan.COM  |  DTC Duats  |  CSC Duats

KJQF 242359Z 00000KT 10SM CLR 18/08 A3002
KCLT 242352Z 00000KT 10SM FEW250 21/06 A2998 RMK AO2 SLP149 T02060061 10228 20200 56005 $
KGSO 242354Z 22005KT 10SM BKN250 18/03 A2999 RMK AO2 SLP151 T01830028 10217 20183 50001
KRDU 242351Z 16004KT 10SM BKN250 18/03 A3001 RMK AO2 SLP159 T01780033 10217 20178 56000
KAVL 242354Z 17008KT 10SM CLR 17/03 A2999 RMK AO2 SLP145 T01720028 10217 20172 58000
KGSP 242353Z 17003KT 10SM CLR 21/06 A2995 RMK AO2 SLP137 T02060056 10244 20206 58007
KCAE 242356Z 09007KT 10SM FEW070 SCT200 23/10 A2995 RMK AO2 SLP139 T02330100 10267 20233 58005
KCHS 242356Z 08006KT 10SM FEW040 19/13 A3000 RMK AO2 SLP159 T01940133 10250 20194 58002

Radar Info

Concord Terminal Charts and local weather

Top